sensor_id;sensor_type;location;lat;lon;timestamp;P1;durP1;ratioP1;P2;durP2;ratioP2
56519;SDS011;42420;53.586;10.052;2023-02-28T00:02:12;7.35;;;2.20;;
56519;SDS011;42420;53.586;10.052;2023-02-28T00:07:18;5.88;;;1.88;;
56519;SDS011;42420;53.586;10.052;2023-02-28T00:12:31;9.27;;;2.30;;
56519;SDS011;42420;53.586;10.052;2023-02-28T00:17:31;11.13;;;2.90;;
56519;SDS011;42420;53.586;10.052;2023-02-28T00:22:32;6.90;;;2.15;;
56519;SDS011;42420;53.586;10.052;2023-02-28T00:27:40;6.68;;;2.55;;
56519;SDS011;42420;53.586;10.052;2023-02-28T00:32:41;9.77;;;2.95;;
56519;SDS011;42420;53.586;10.052;2023-02-28T00:38:02;7.40;;;2.60;;
56519;SDS011;42420;53.586;10.052;2023-02-28T00:43:07;6.53;;;2.43;;
56519;SDS011;42420;53.586;10.052;2023-02-28T00:48:07;6.63;;;2.10;;
56519;SDS011;42420;53.586;10.052;2023-02-28T00:53:07;7.95;;;3.25;;
56519;SDS011;42420;53.586;10.052;2023-02-28T00:58:19;8.05;;;1.80;;
56519;SDS011;42420;53.586;10.052;2023-02-28T01:03:23;9.02;;;2.10;;
56519;SDS011;42420;53.586;10.052;2023-02-28T01:08:28;5.68;;;1.92;;
56519;SDS011;42420;53.586;10.052;2023-02-28T01:13:34;5.68;;;1.77;;
56519;SDS011;42420;53.586;10.052;2023-02-28T01:18:42;6.38;;;1.60;;
56519;SDS011;42420;53.586;10.052;2023-02-28T01:24:10;6.00;;;1.98;;
56519;SDS011;42420;53.586;10.052;2023-02-28T01:29:14;7.53;;;1.75;;
56519;SDS011;42420;53.586;10.052;2023-02-28T01:34:11;5.20;;;1.55;;
56519;SDS011;42420;53.586;10.052;2023-02-28T01:39:10;5.85;;;1.75;;
56519;SDS011;42420;53.586;10.052;2023-02-28T01:44:53;6.63;;;1.83;;
56519;SDS011;42420;53.586;10.052;2023-02-28T01:49:41;5.32;;;1.85;;
56519;SDS011;42420;53.586;10.052;2023-02-28T01:54:38;7.63;;;2.00;;
56519;SDS011;42420;53.586;10.052;2023-02-28T01:59:37;9.32;;;2.13;;
56519;SDS011;42420;53.586;10.052;2023-02-28T02:04:41;6.70;;;1.90;;
56519;SDS011;42420;53.586;10.052;2023-02-28T02:09:40;6.35;;;2.40;;
56519;SDS011;42420;53.586;10.052;2023-02-28T02:14:48;5.78;;;2.35;;
56519;SDS011;42420;53.586;10.052;2023-02-28T02:35:52;7.68;;;2.75;;
56519;SDS011;42420;53.586;10.052;2023-02-28T02:41:28;7.03;;;2.50;;
56519;SDS011;42420;53.586;10.052;2023-02-28T02:46:48;8.77;;;2.97;;
56519;SDS011;42420;53.586;10.052;2023-02-28T02:51:47;6.57;;;2.25;;
56519;SDS011;42420;53.586;10.052;2023-02-28T02:56:45;9.50;;;2.20;;
56519;SDS011;42420;53.586;10.052;2023-02-28T03:01:43;7.95;;;2.50;;
56519;SDS011;42420;53.586;10.052;2023-02-28T03:06:40;8.35;;;2.97;;
56519;SDS011;42420;53.586;10.052;2023-02-28T03:11:36;6.57;;;2.70;;
56519;SDS011;42420;53.586;10.052;2023-02-28T03:21:58;8.90;;;2.70;;
56519;SDS011;42420;53.586;10.052;2023-02-28T03:27:38;8.82;;;2.65;;
56519;SDS011;42420;53.586;10.052;2023-02-28T03:37:59;6.53;;;2.97;;
56519;SDS011;42420;53.586;10.052;2023-02-28T03:43:03;7.10;;;3.30;;
56519;SDS011;42420;53.586;10.052;2023-02-28T03:48:13;9.73;;;3.80;;
56519;SDS011;42420;53.586;10.052;2023-02-28T03:53:20;8.20;;;3.40;;
56519;SDS011;42420;53.586;10.052;2023-02-28T03:58:37;8.35;;;3.35;;
56519;SDS011;42420;53.586;10.052;2023-02-28T04:03:39;7.32;;;3.47;;
56519;SDS011;42420;53.586;10.052;2023-02-28T04:08:37;9.60;;;3.58;;
56519;SDS011;42420;53.586;10.052;2023-02-28T04:13:34;11.15;;;3.65;;
56519;SDS011;42420;53.586;10.052;2023-02-28T04:18:30;11.82;;;3.42;;
56519;SDS011;42420;53.586;10.052;2023-02-28T04:23:27;10.20;;;3.97;;
56519;SDS011;42420;53.586;10.052;2023-02-28T04:28:23;12.60;;;3.88;;
56519;SDS011;42420;53.586;10.052;2023-02-28T04:33:20;10.10;;;3.95;;
56519;SDS011;42420;53.586;10.052;2023-02-28T04:38:16;7.57;;;3.60;;
56519;SDS011;42420;53.586;10.052;2023-02-28T04:43:13;8.55;;;3.38;;
56519;SDS011;42420;53.586;10.052;2023-02-28T04:48:09;9.20;;;3.73;;
56519;SDS011;42420;53.586;10.052;2023-02-28T04:53:06;7.03;;;3.63;;
56519;SDS011;42420;53.586;10.052;2023-02-28T04:58:02;8.17;;;4.00;;
56519;SDS011;42420;53.586;10.052;2023-02-28T05:02:58;11.33;;;4.13;;
56519;SDS011;42420;53.586;10.052;2023-02-28T05:07:55;12.27;;;3.67;;
56519;SDS011;42420;53.586;10.052;2023-02-28T05:12:52;8.77;;;3.70;;
56519;SDS011;42420;53.586;10.052;2023-02-28T05:17:49;9.23;;;3.85;;
56519;SDS011;42420;53.586;10.052;2023-02-28T05:22:46;12.30;;;4.47;;
56519;SDS011;42420;53.586;10.052;2023-02-28T05:27:45;9.45;;;3.95;;
56519;SDS011;42420;53.586;10.052;2023-02-28T05:32:42;8.80;;;4.15;;
56519;SDS011;42420;53.586;10.052;2023-02-28T05:37:41;9.40;;;4.22;;
56519;SDS011;42420;53.586;10.052;2023-02-28T05:42:38;10.02;;;4.40;;
56519;SDS011;42420;53.586;10.052;2023-02-28T05:47:43;11.25;;;4.25;;
56519;SDS011;42420;53.586;10.052;2023-02-28T05:52:45;9.98;;;3.97;;
56519;SDS011;42420;53.586;10.052;2023-02-28T05:57:45;10.63;;;4.43;;
56519;SDS011;42420;53.586;10.052;2023-02-28T06:02:47;16.80;;;4.60;;
56519;SDS011;42420;53.586;10.052;2023-02-28T06:07:43;9.52;;;4.95;;
56519;SDS011;42420;53.586;10.052;2023-02-28T06:12:40;12.60;;;5.97;;
56519;SDS011;42420;53.586;10.052;2023-02-28T06:17:43;10.30;;;4.53;;
56519;SDS011;42420;53.586;10.052;2023-02-28T06:22:41;10.85;;;4.90;;
56519;SDS011;42420;53.586;10.052;2023-02-28T06:27:38;15.60;;;5.57;;
56519;SDS011;42420;53.586;10.052;2023-02-28T06:32:39;9.70;;;4.63;;
56519;SDS011;42420;53.586;10.052;2023-02-28T06:37:37;13.20;;;4.95;;
56519;SDS011;42420;53.586;10.052;2023-02-28T06:42:37;11.82;;;4.68;;
56519;SDS011;42420;53.586;10.052;2023-02-28T06:47:33;16.02;;;5.88;;
56519;SDS011;42420;53.586;10.052;2023-02-28T06:52:30;9.88;;;4.47;;
56519;SDS011;42420;53.586;10.052;2023-02-28T06:57:30;9.68;;;5.05;;
56519;SDS011;42420;53.586;10.052;2023-02-28T07:02:35;10.82;;;4.38;;
56519;SDS011;42420;53.586;10.052;2023-02-28T07:07:36;13.80;;;4.95;;
56519;SDS011;42420;53.586;10.052;2023-02-28T07:12:38;12.35;;;5.03;;
56519;SDS011;42420;53.586;10.052;2023-02-28T07:17:35;14.20;;;5.00;;
56519;SDS011;42420;53.586;10.052;2023-02-28T07:22:32;11.50;;;4.50;;
56519;SDS011;42420;53.586;10.052;2023-02-28T07:27:35;14.25;;;4.78;;
56519;SDS011;42420;53.586;10.052;2023-02-28T07:32:34;12.20;;;4.53;;
56519;SDS011;42420;53.586;10.052;2023-02-28T07:37:40;13.40;;;4.72;;
56519;SDS011;42420;53.586;10.052;2023-02-28T07:42:38;21.10;;;5.47;;
56519;SDS011;42420;53.586;10.052;2023-02-28T07:47:41;28.58;;;6.88;;
56519;SDS011;42420;53.586;10.052;2023-02-28T07:52:41;26.00;;;5.72;;
56519;SDS011;42420;53.586;10.052;2023-02-28T07:57:38;19.67;;;5.93;;
56519;SDS011;42420;53.586;10.052;2023-02-28T08:02:35;16.25;;;6.07;;
56519;SDS011;42420;53.586;10.052;2023-02-28T08:07:34;15.13;;;5.97;;
56519;SDS011;42420;53.586;10.052;2023-02-28T08:12:31;15.73;;;5.97;;
56519;SDS011;42420;53.586;10.052;2023-02-28T08:17:27;11.40;;;5.07;;
56519;SDS011;42420;53.586;10.052;2023-02-28T08:22:30;16.73;;;5.72;;
56519;SDS011;42420;53.586;10.052;2023-02-28T08:27:29;13.60;;;6.13;;
56519;SDS011;42420;53.586;10.052;2023-02-28T08:32:26;16.60;;;5.93;;
56519;SDS011;42420;53.586;10.052;2023-02-28T08:37:25;12.85;;;5.47;;
56519;SDS011;42420;53.586;10.052;2023-02-28T08:42:24;16.25;;;5.80;;
56519;SDS011;42420;53.586;10.052;2023-02-28T08:47:23;15.27;;;5.88;;
56519;SDS011;42420;53.586;10.052;2023-02-28T08:52:20;13.93;;;5.55;;
56519;SDS011;42420;53.586;10.052;2023-02-28T08:57:17;12.77;;;5.55;;
56519;SDS011;42420;53.586;10.052;2023-02-28T09:02:18;9.57;;;3.90;;
56519;SDS011;42420;53.586;10.052;2023-02-28T09:07:17;14.60;;;4.45;;
56519;SDS011;42420;53.586;10.052;2023-02-28T09:12:15;14.40;;;5.13;;
56519;SDS011;42420;53.586;10.052;2023-02-28T09:17:15;9.35;;;2.67;;
56519;SDS011;42420;53.586;10.052;2023-02-28T09:22:12;11.90;;;2.60;;
56519;SDS011;42420;53.586;10.052;2023-02-28T09:27:09;8.07;;;2.55;;
56519;SDS011;42420;53.586;10.052;2023-02-28T09:32:15;6.47;;;2.83;;
56519;SDS011;42420;53.586;10.052;2023-02-28T09:37:14;7.45;;;2.40;;
56519;SDS011;42420;53.586;10.052;2023-02-28T09:42:13;9.07;;;2.70;;
56519;SDS011;42420;53.586;10.052;2023-02-28T09:52:30;6.88;;;2.10;;
56519;SDS011;42420;53.586;10.052;2023-02-28T10:02:58;7.50;;;2.20;;
56519;SDS011;42420;53.586;10.052;2023-02-28T10:18:25;8.70;;;2.47;;
56519;SDS011;42420;53.586;10.052;2023-02-28T10:23:34;5.38;;;2.03;;
56519;SDS011;42420;53.586;10.052;2023-02-28T10:28:31;5.22;;;2.20;;
56519;SDS011;42420;53.586;10.052;2023-02-28T10:33:32;9.70;;;4.55;;
56519;SDS011;42420;53.586;10.052;2023-02-28T10:38:34;7.97;;;1.85;;
56519;SDS011;42420;53.586;10.052;2023-02-28T10:43:32;5.53;;;1.90;;
56519;SDS011;42420;53.586;10.052;2023-02-28T10:48:30;4.95;;;1.90;;
56519;SDS011;42420;53.586;10.052;2023-02-28T10:53:32;8.23;;;1.77;;
56519;SDS011;42420;53.586;10.052;2023-02-28T11:09:23;9.48;;;3.47;;
56519;SDS011;42420;53.586;10.052;2023-02-28T11:19:29;7.70;;;2.15;;
56519;SDS011;42420;53.586;10.052;2023-02-28T11:24:37;5.97;;;1.92;;
56519;SDS011;42420;53.586;10.052;2023-02-28T11:29:39;5.10;;;1.67;;
56519;SDS011;42420;53.586;10.052;2023-02-28T11:34:43;5.90;;;2.00;;
56519;SDS011;42420;53.586;10.052;2023-02-28T11:39:40;4.43;;;1.73;;
56519;SDS011;42420;53.586;10.052;2023-02-28T12:00:07;5.85;;;1.70;;
56519;SDS011;42420;53.586;10.052;2023-02-28T12:05:41;6.88;;;2.20;;
56519;SDS011;42420;53.586;10.052;2023-02-28T12:10:44;9.73;;;1.95;;
56519;SDS011;42420;53.586;10.052;2023-02-28T12:16:20;7.30;;;2.40;;
56519;SDS011;42420;53.586;10.052;2023-02-28T12:26:57;6.18;;;1.92;;
56519;SDS011;42420;53.586;10.052;2023-02-28T12:32:03;5.55;;;1.73;;
56519;SDS011;42420;53.586;10.052;2023-02-28T12:37:04;7.15;;;1.73;;
56519;SDS011;42420;53.586;10.052;2023-02-28T12:42:05;8.43;;;1.90;;
56519;SDS011;42420;53.586;10.052;2023-02-28T12:47:05;6.07;;;1.98;;
56519;SDS011;42420;53.586;10.052;2023-02-28T12:52:07;6.65;;;2.55;;
56519;SDS011;42420;53.586;10.052;2023-02-28T12:57:15;7.07;;;1.90;;
56519;SDS011;42420;53.586;10.052;2023-02-28T13:02:25;8.50;;;2.10;;
56519;SDS011;42420;53.586;10.052;2023-02-28T13:12:55;7.50;;;1.67;;
56519;SDS011;42420;53.586;10.052;2023-02-28T13:17:53;8.05;;;1.92;;
56519;SDS011;42420;53.586;10.052;2023-02-28T13:22:54;6.88;;;1.92;;
56519;SDS011;42420;53.586;10.052;2023-02-28T13:27:54;6.57;;;1.60;;
56519;SDS011;42420;53.586;10.052;2023-02-28T13:38:22;5.05;;;1.52;;
56519;SDS011;42420;53.586;10.052;2023-02-28T13:43:20;9.05;;;2.08;;
56519;SDS011;42420;53.586;10.052;2023-02-28T13:48:31;6.97;;;1.70;;
56519;SDS011;42420;53.586;10.052;2023-02-28T13:53:30;5.40;;;1.70;;
56519;SDS011;42420;53.586;10.052;2023-02-28T13:58:40;7.72;;;2.17;;
56519;SDS011;42420;53.586;10.052;2023-02-28T14:14:09;5.03;;;1.80;;
56519;SDS011;42420;53.586;10.052;2023-02-28T14:19:28;5.72;;;1.90;;
56519;SDS011;42420;53.586;10.052;2023-02-28T14:39:55;7.75;;;1.90;;
56519;SDS011;42420;53.586;10.052;2023-02-28T14:44:55;4.95;;;2.00;;
56519;SDS011;42420;53.586;10.052;2023-02-28T14:49:54;6.22;;;1.63;;
56519;SDS011;42420;53.586;10.052;2023-02-28T14:59:56;4.30;;;1.40;;
56519;SDS011;42420;53.586;10.052;2023-02-28T15:10:25;5.05;;;1.75;;
56519;SDS011;42420;53.586;10.052;2023-02-28T15:15:24;6.45;;;1.70;;
56519;SDS011;42420;53.586;10.052;2023-02-28T15:20:35;5.78;;;1.58;;
56519;SDS011;42420;53.586;10.052;2023-02-28T15:25:35;4.53;;;1.50;;
56519;SDS011;42420;53.586;10.052;2023-02-28T15:30:31;5.97;;;1.58;;
56519;SDS011;42420;53.586;10.052;2023-02-28T15:35:31;4.05;;;1.50;;
56519;SDS011;42420;53.586;10.052;2023-02-28T15:45:41;7.45;;;1.75;;
56519;SDS011;42420;53.586;10.052;2023-02-28T15:50:40;4.00;;;1.40;;
56519;SDS011;42420;53.586;10.052;2023-02-28T15:55:37;6.18;;;1.63;;
56519;SDS011;42420;53.586;10.052;2023-02-28T16:00:33;4.25;;;1.48;;
56519;SDS011;42420;53.586;10.052;2023-02-28T16:10:39;6.28;;;1.90;;
56519;SDS011;42420;53.586;10.052;2023-02-28T16:15:37;6.95;;;1.70;;
56519;SDS011;42420;53.586;10.052;2023-02-28T16:20:37;6.40;;;1.70;;
56519;SDS011;42420;53.586;10.052;2023-02-28T16:30:39;4.72;;;1.70;;
56519;SDS011;42420;53.586;10.052;2023-02-28T16:35:36;7.18;;;2.13;;
56519;SDS011;42420;53.586;10.052;2023-02-28T16:40:33;5.13;;;1.70;;
56519;SDS011;42420;53.586;10.052;2023-02-28T16:45:31;6.03;;;1.88;;
56519;SDS011;42420;53.586;10.052;2023-02-28T16:50:28;7.22;;;1.98;;
56519;SDS011;42420;53.586;10.052;2023-02-28T16:55:27;6.72;;;2.10;;
56519;SDS011;42420;53.586;10.052;2023-02-28T17:00:26;9.77;;;2.25;;
56519;SDS011;42420;53.586;10.052;2023-02-28T17:05:23;6.13;;;2.15;;
56519;SDS011;42420;53.586;10.052;2023-02-28T17:10:26;8.75;;;2.28;;
56519;SDS011;42420;53.586;10.052;2023-02-28T17:15:24;9.40;;;2.33;;
56519;SDS011;42420;53.586;10.052;2023-02-28T17:20:21;8.38;;;1.80;;
56519;SDS011;42420;53.586;10.052;2023-02-28T17:25:23;9.27;;;2.50;;
56519;SDS011;42420;53.586;10.052;2023-02-28T17:42:47;7.53;;;2.15;;
56519;SDS011;42420;53.586;10.052;2023-02-28T17:54:45;5.90;;;2.35;;
56519;SDS011;42420;53.586;10.052;2023-02-28T17:59:51;9.40;;;2.63;;
56519;SDS011;42420;53.586;10.052;2023-02-28T18:05:04;7.93;;;2.60;;
56519;SDS011;42420;53.586;10.052;2023-02-28T18:10:19;7.57;;;2.60;;
56519;SDS011;42420;53.586;10.052;2023-02-28T18:15:21;9.80;;;2.90;;
56519;SDS011;42420;53.586;10.052;2023-02-28T18:20:51;7.47;;;2.90;;
56519;SDS011;42420;53.586;10.052;2023-02-28T18:25:53;10.18;;;2.88;;
56519;SDS011;42420;53.586;10.052;2023-02-28T18:30:50;10.88;;;2.85;;
56519;SDS011;42420;53.586;10.052;2023-02-28T18:35:53;10.85;;;2.83;;
56519;SDS011;42420;53.586;10.052;2023-02-28T18:40:51;11.25;;;2.97;;
56519;SDS011;42420;53.586;10.052;2023-02-28T18:45:51;9.63;;;3.05;;
56519;SDS011;42420;53.586;10.052;2023-02-28T18:50:48;11.32;;;2.72;;
56519;SDS011;42420;53.586;10.052;2023-02-28T18:55:48;8.88;;;3.08;;
56519;SDS011;42420;53.586;10.052;2023-02-28T19:00:46;11.32;;;4.22;;
56519;SDS011;42420;53.586;10.052;2023-02-28T19:42:21;10.50;;;4.10;;
56519;SDS011;42420;53.586;10.052;2023-02-28T19:47:31;12.27;;;4.10;;
56519;SDS011;42420;53.586;10.052;2023-02-28T19:52:55;16.38;;;5.78;;
56519;SDS011;42420;53.586;10.052;2023-02-28T19:58:06;14.55;;;5.78;;
56519;SDS011;42420;53.586;10.052;2023-02-28T20:29:07;8.50;;;3.58;;
56519;SDS011;42420;53.586;10.052;2023-02-28T20:35:44;12.00;;;5.35;;
56519;SDS011;42420;53.586;10.052;2023-02-28T20:41:30;13.68;;;5.75;;
56519;SDS011;42420;53.586;10.052;2023-02-28T20:46:29;17.40;;;7.00;;
56519;SDS011;42420;53.586;10.052;2023-02-28T20:51:27;17.30;;;6.90;;
56519;SDS011;42420;53.586;10.052;2023-02-28T20:56:23;14.13;;;6.65;;
56519;SDS011;42420;53.586;10.052;2023-02-28T21:01:21;16.27;;;7.10;;
56519;SDS011;42420;53.586;10.052;2023-02-28T21:06:29;15.57;;;6.55;;
56519;SDS011;42420;53.586;10.052;2023-02-28T21:11:28;20.50;;;7.88;;
56519;SDS011;42420;53.586;10.052;2023-02-28T21:16:31;19.00;;;7.95;;
56519;SDS011;42420;53.586;10.052;2023-02-28T21:21:28;16.77;;;6.93;;
56519;SDS011;42420;53.586;10.052;2023-02-28T21:26:31;18.23;;;7.78;;
56519;SDS011;42420;53.586;10.052;2023-02-28T21:31:29;16.65;;;6.82;;
56519;SDS011;42420;53.586;10.052;2023-02-28T21:36:28;16.38;;;7.40;;
56519;SDS011;42420;53.586;10.052;2023-02-28T21:41:28;19.50;;;7.68;;
56519;SDS011;42420;53.586;10.052;2023-02-28T21:46:27;15.65;;;7.95;;
56519;SDS011;42420;53.586;10.052;2023-02-28T21:51:26;16.77;;;8.27;;
56519;SDS011;42420;53.586;10.052;2023-02-28T21:56:27;20.48;;;7.78;;
56519;SDS011;42420;53.586;10.052;2023-02-28T22:01:31;19.83;;;8.98;;
56519;SDS011;42420;53.586;10.052;2023-02-28T22:06:33;19.30;;;8.77;;
56519;SDS011;42420;53.586;10.052;2023-02-28T22:11:31;21.05;;;9.68;;
56519;SDS011;42420;53.586;10.052;2023-02-28T22:16:29;20.48;;;8.55;;
56519;SDS011;42420;53.586;10.052;2023-02-28T22:21:44;30.55;;;13.60;;
56519;SDS011;42420;53.586;10.052;2023-02-28T22:26:42;22.55;;;10.35;;
56519;SDS011;42420;53.586;10.052;2023-02-28T22:31:38;19.88;;;9.15;;
56519;SDS011;42420;53.586;10.052;2023-02-28T22:36:35;21.05;;;10.38;;
56519;SDS011;42420;53.586;10.052;2023-02-28T22:41:32;23.55;;;10.43;;
56519;SDS011;42420;53.586;10.052;2023-02-28T22:46:29;23.10;;;10.52;;
56519;SDS011;42420;53.586;10.052;2023-02-28T22:51:28;24.00;;;11.25;;
56519;SDS011;42420;53.586;10.052;2023-02-28T22:56:28;26.95;;;11.93;;
56519;SDS011;42420;53.586;10.052;2023-02-28T23:01:26;26.10;;;12.75;;
56519;SDS011;42420;53.586;10.052;2023-02-28T23:06:31;27.60;;;13.48;;
56519;SDS011;42420;53.586;10.052;2023-02-28T23:11:38;30.38;;;12.52;;
56519;SDS011;42420;53.586;10.052;2023-02-28T23:16:40;27.05;;;12.52;;
56519;SDS011;42420;53.586;10.052;2023-02-28T23:21:44;25.08;;;12.20;;
56519;SDS011;42420;53.586;10.052;2023-02-28T23:26:42;26.02;;;12.38;;
56519;SDS011;42420;53.586;10.052;2023-02-28T23:31:48;23.45;;;12.02;;
56519;SDS011;42420;53.586;10.052;2023-02-28T23:36:47;27.20;;;11.85;;
56519;SDS011;42420;53.586;10.052;2023-02-28T23:41:46;27.30;;;12.55;;
56519;SDS011;42420;53.586;10.052;2023-02-28T23:51:40;27.70;;;12.20;;
56519;SDS011;42420;53.586;10.052;2023-02-28T23:56:37;24.27;;;11.35;;
